This is the latest recevied weather packets stored in our database for station/object KJ6APE. If no packets are shown the sender has not sent any weather packets the latest 10 day(s).
| Time | Temp. | Humidity | Pressure | Rain* | Wind** | Luminosity | Snow |
|---|---|---|---|---|---|---|---|
| 1777833637 | 17.22° C | 61% | 1013.4 hPa | 0 mm | - | 487 W/m² | - |
| 1777833334 | 16.67° C | 63% | 1013.4 hPa | 0 mm | - | 497 W/m² | - |
| 1777833031 | 16.11° C | 67% | 1013.2 hPa | 0 mm | - | 454 W/m² | - |
| 1777832729 | 16.11° C | 68% | 1013.6 hPa | 0 mm | - | 347 W/m² | - |
| 1777832427 | 16.11° C | 68% | 1013.3 hPa | 0 mm | - | 262 W/m² | - |
| 1777832124 | 16.67° C | 67% | 1013.4 hPa | 0 mm | - | 245 W/m² | - |
| 1777831820 | 16.67° C | 65% | 1013.3 hPa | 0 mm | - | 378 W/m² | - |
| 1777831518 | 16.11° C | 65% | 1013.2 hPa | 0 mm | - | 499 W/m² | - |
| 1777831215 | 15.56° C | 68% | 1013.2 hPa | 0 mm | - | 513 W/m² | - |
| 1777830912 | 15.56° C | 69% | 1013.2 hPa | 0 mm | - | 321 W/m² | - |
| 1777830609 | 15.56° C | 67% | 1013.3 hPa | 0 mm | - | 145 W/m² | - |
| 1777830306 | 16.11° C | 66% | 1013.4 hPa | 0 mm | - | 171 W/m² | - |
| 1777830002 | 16.11° C | 66% | 1013 hPa | 0 mm | - | 240 W/m² | - |
| 1777829697 | 16.11° C | 66% | 1013.1 hPa | 0 mm | - | 217 W/m² | - |
| 1777829394 | 16.11° C | 66% | 1013 hPa | 0 mm | - | 255 W/m² | - |
| 1777829092 | 16.67° C | 66% | 1013.1 hPa | 0 mm | - | 211 W/m² | - |
| 1777828788 | 16.67° C | 65% | 1013.2 hPa | 0 mm | - | 225 W/m² | - |
| 1777828485 | 16.11° C | 69% | 1012.8 hPa | 0 mm | - | 804 W/m² | - |
| 1777828183 | 16.11° C | 67% | 1013.1 hPa | 0 mm | - | 283 W/m² | - |
| 1777827878 | 16.11° C | 67% | 1013.1 hPa | 0 mm | - | 324 W/m² | - |
| 1777827576 | 16.11° C | 67% | 1012.7 hPa | 0 mm | - | 295 W/m² | - |
| 1777827273 | 16.11° C | 67% | 1012.9 hPa | 0 mm | - | 381 W/m² | - |
| 1777826970 | 16.67° C | 66% | 1012.8 hPa | 0 mm | - | 381 W/m² | - |
| 1777826667 | 16.11° C | 66% | 1013.1 hPa | 0 mm | - | 406 W/m² | - |
| 1777826363 | 16.11° C | 65% | 1012.9 hPa | 0 mm | - | 467 W/m² | - |
* Rain latest hour (hover to see other rain measurements)
** Current wind speed in m/s (hover to see current wind gust speed)